Time;durP1;ratioP1;P1;durP2;ratioP2;P2;SDS_P1;SDS_P2;PMS_P1;PMS_P2;Temp;Humidity;BMP_temperature;BMP_pressure;BME280_temperature;BME280_humidity;BME280_pressure;Samples;Min_cycle;Max_cycle;Signal;HPM_P1;HPM_P2
2023/10/10 00:01:04;;;;;;;7.13;5.10;;;14.30;99.90;;;;;;5011545;28;20471;-63
2023/10/10 00:03:34;;;;;;;8.70;5.70;;;14.20;99.90;;;;;;5020013;28;20499;-62
2023/10/10 00:06:08;;;;;;;7.23;4.77;;;14.20;99.90;;;;;;5013690;28;20479;-62
2023/10/10 00:08:40;;;;;;;7.30;5.33;;;14.20;99.90;;;;;;5010641;28;20901;-62
2023/10/10 00:11:10;;;;;;;7.07;5.13;;;14.20;99.90;;;;;;5015941;28;20564;-62
2023/10/10 00:13:42;;;;;;;7.87;5.67;;;14.10;99.90;;;;;;5020261;28;20498;-62
2023/10/10 00:16:11;;;;;;;7.97;5.77;;;14.10;99.90;;;;;;5024491;28;20497;-62
2023/10/10 00:18:43;;;;;;;6.40;5.40;;;14.00;99.90;;;;;;5019839;28;21082;-62
2023/10/10 00:21:17;;;;;;;6.53;5.60;;;14.00;99.90;;;;;;5026726;28;20463;-61
2023/10/10 00:23:49;;;;;;;5.83;5.30;;;14.00;99.90;;;;;;5025144;28;20502;-62
2023/10/10 00:26:20;;;;;;;6.50;5.30;;;14.00;99.90;;;;;;5023720;28;20725;-63
2023/10/10 00:28:54;;;;;;;7.80;5.20;;;14.00;99.90;;;;;;5019907;28;20987;-62
2023/10/10 00:31:23;;;;;;;9.53;5.50;;;14.00;99.90;;;;;;5028758;28;20462;-63
2023/10/10 00:33:52;;;;;;;8.13;6.20;;;14.00;99.90;;;;;;5020590;28;20487;-63
2023/10/10 00:36:31;;;;;;;7.03;5.43;;;14.00;99.90;;;;;;5021778;28;20568;-62
2023/10/10 00:39:22;;;;;;;8.30;5.93;;;14.00;99.90;;;;;;5025679;28;21052;-63
2023/10/10 00:41:53;;;;;;;8.00;5.80;;;14.00;99.90;;;;;;5021818;28;20495;-62
2023/10/10 00:44:25;;;;;;;9.50;6.87;;;13.90;99.90;;;;;;5028077;28;20570;-63
2023/10/10 00:46:56;;;;;;;7.83;6.27;;;13.90;99.90;;;;;;5022137;28;20463;-62
2023/10/10 00:49:26;;;;;;;9.03;7.47;;;13.90;99.90;;;;;;5022457;28;20470;-62
2023/10/10 00:51:59;;;;;;;9.40;7.27;;;13.90;99.90;;;;;;5022700;28;20467;-62
2023/10/10 00:54:32;;;;;;;8.37;7.47;;;13.90;99.90;;;;;;5018873;28;20606;-63
2023/10/10 00:57:03;;;;;;;11.80;8.37;;;13.80;99.90;;;;;;5018297;28;20563;-62
2023/10/10 00:59:35;;;;;;;10.33;9.23;;;13.80;99.90;;;;;;5022631;28;20899;-62
2023/10/10 01:02:06;;;;;;;9.50;8.33;;;13.90;99.90;;;;;;5017609;28;20494;-61
2023/10/10 01:04:39;;;;;;;9.27;8.30;;;13.90;99.90;;;;;;5020606;28;20483;-62
2023/10/10 01:07:08;;;;;;;12.73;10.07;;;13.80;99.90;;;;;;5022505;28;20868;-62
2023/10/10 01:09:51;;;;;;;11.30;9.00;;;13.80;99.90;;;;;;5017701;28;20463;-62
2023/10/10 01:12:19;;;;;;;11.73;9.90;;;13.90;99.90;;;;;;5024315;28;20873;-62
2023/10/10 01:14:47;;;;;;;11.93;10.23;;;13.90;99.90;;;;;;5019569;28;20495;-62
2023/10/10 01:17:16;;;;;;;9.63;8.60;;;13.90;99.90;;;;;;5018812;28;21047;-63
2023/10/10 01:19:44;;;;;;;10.33;8.90;;;13.90;99.90;;;;;;5017925;28;20471;-62
2023/10/10 01:22:35;;;;;;;12.30;9.77;;;13.80;99.90;;;;;;5018352;28;20475;-62
2023/10/10 01:25:20;;;;;;;11.77;9.63;;;13.80;99.90;;;;;;5018887;28;20988;-64
2023/10/10 01:27:49;;;;;;;11.73;10.53;;;13.80;99.90;;;;;;5022320;28;21002;-62
2023/10/10 01:30:17;;;;;;;12.33;10.37;;;13.80;99.90;;;;;;5018417;28;20491;-61
2023/10/10 01:32:50;;;;;;;11.50;10.20;;;13.70;99.90;;;;;;5024387;28;20486;-63
2023/10/10 01:35:23;;;;;;;11.50;10.37;;;13.60;99.90;;;;;;5022664;28;20492;-61
2023/10/10 01:37:55;;;;;;;11.43;10.23;;;13.60;99.90;;;;;;5020581;28;20464;-62
2023/10/10 01:40:28;;;;;;;12.50;11.20;;;13.60;99.90;;;;;;5026497;28;20543;-63
2023/10/10 01:42:59;;;;;;;12.37;11.07;;;13.60;99.90;;;;;;5021927;28;20490;-62
2023/10/10 01:45:29;;;;;;;13.87;12.47;;;13.50;99.90;;;;;;5021564;28;20510;-62
2023/10/10 01:47:57;;;;;;;13.23;11.83;;;13.50;99.90;;;;;;5023096;28;20540;-62
2023/10/10 01:50:26;;;;;;;14.07;12.67;;;13.50;99.90;;;;;;5020562;28;20904;-63
2023/10/10 01:52:57;;;;;;;15.13;12.53;;;13.40;99.90;;;;;;5013058;28;20544;-61
2023/10/10 01:55:26;;;;;;;13.53;12.03;;;13.40;99.90;;;;;;5015640;28;20507;-62
2023/10/10 01:57:57;;;;;;;15.20;12.50;;;13.40;99.90;;;;;;5014615;28;20503;-63
2023/10/10 02:00:27;;;;;;;14.10;12.20;;;13.40;99.90;;;;;;5016223;28;20467;-62
2023/10/10 02:02:56;;;;;;;14.37;12.83;;;13.40;99.90;;;;;;5014044;28;20486;-61
2023/10/10 02:05:42;;;;;;;15.63;12.47;;;13.30;99.90;;;;;;5012999;28;20519;-62
2023/10/10 02:08:16;;;;;;;14.23;12.70;;;13.30;99.90;;;;;;5015048;28;20471;-62
2023/10/10 02:10:49;;;;;;;15.60;13.47;;;13.30;99.90;;;;;;5011216;28;20499;-62
2023/10/10 02:13:17;;;;;;;15.67;13.83;;;13.30;99.90;;;;;;5013128;28;21053;-62
2023/10/10 02:15:45;;;;;;;17.00;13.70;;;13.30;99.90;;;;;;5010521;28;20491;-62
2023/10/10 02:18:14;;;;;;;14.90;13.00;;;13.30;99.90;;;;;;5008456;28;20561;-62
2023/10/10 02:20:51;;;;;;;15.63;13.50;;;13.20;99.90;;;;;;5015680;28;20502;-62
2023/10/10 02:23:31;;;;;;;13.50;12.10;;;13.20;99.90;;;;;;5009134;28;21203;-62
2023/10/10 02:26:03;;;;;;;15.13;13.53;;;13.20;99.90;;;;;;5017260;28;20487;-62
2023/10/10 02:28:49;;;;;;;15.30;13.67;;;13.20;99.90;;;;;;5012511;28;20566;-62
2023/10/10 02:31:19;;;;;;;15.50;13.13;;;13.20;99.90;;;;;;5014788;28;20486;-62
2023/10/10 02:33:55;;;;;;;17.73;14.33;;;13.20;99.90;;;;;;5015498;28;20580;-62
2023/10/10 02:36:30;;;;;;;14.37;12.10;;;13.20;99.90;;;;;;5017162;28;20857;-62
2023/10/10 02:39:18;;;;;;;14.77;12.83;;;13.10;99.90;;;;;;5009621;28;20976;-62
2023/10/10 02:41:51;;;;;;;16.27;12.70;;;13.20;99.90;;;;;;5011213;28;20863;-63
2023/10/10 02:47:12;;;;;;;13.53;12.13;;;13.20;99.90;;;;;;5009522;28;21205;-62
2023/10/10 02:49:42;;;;;;;14.07;12.17;;;13.20;99.90;;;;;;5015528;28;20475;-62
2023/10/10 02:52:14;;;;;;;15.13;12.17;;;13.20;99.90;;;;;;5017933;28;20485;-62
2023/10/10 02:54:53;;;;;;;15.47;13.77;;;13.10;99.90;;;;;;5010521;28;20578;-62
2023/10/10 02:57:27;;;;;;;15.30;12.40;;;13.20;99.90;;;;;;5009822;28;20470;-62
2023/10/10 03:00:15;;;;;;;13.37;11.97;;;13.10;99.90;;;;;;5015217;28;20470;-62
2023/10/10 03:02:49;;;;;;;15.20;12.97;;;13.20;99.90;;;;;;5009925;28;20483;-62
2023/10/10 03:05:29;;;;;;;12.77;11.20;;;13.20;99.90;;;;;;5019809;28;20548;-63
2023/10/10 03:07:57;;;;;;;15.03;13.07;;;13.20;99.90;;;;;;5018292;28;20840;-63
2023/10/10 03:10:38;;;;;;;14.30;12.70;;;13.20;99.90;;;;;;5017577;28;20471;-62
2023/10/10 03:13:13;;;;;;;15.00;12.10;;;13.20;99.90;;;;;;5021064;28;20582;-62
2023/10/10 03:15:51;;;;;;;14.83;12.07;;;13.20;99.90;;;;;;5013533;28;20873;-63
2023/10/10 03:18:27;;;;;;;14.63;12.30;;;13.20;99.90;;;;;;5020765;28;20508;-62
2023/10/10 03:21:24;;;;;;;14.40;11.93;;;13.20;99.90;;;;;;5012953;28;21257;-62
2023/10/10 03:23:55;;;;;;;12.67;11.33;;;13.20;99.90;;;;;;5013376;28;20577;-62
2023/10/10 03:29:26;;;;;;;13.00;11.60;;;13.20;99.90;;;;;;5008202;28;20479;-62
2023/10/10 03:32:19;;;;;;;13.70;12.23;;;13.10;99.90;;;;;;5018908;28;20467;-62
2023/10/10 03:34:55;;;;;;;13.30;11.67;;;13.10;99.90;;;;;;5011472;28;20499;-62
2023/10/10 03:37:38;;;;;;;15.83;13.10;;;13.10;99.90;;;;;;5012109;28;21299;-63
2023/10/10 03:40:21;;;;;;;13.17;11.10;;;13.10;99.90;;;;;;5007986;28;20471;-63
2023/10/10 05:25:25;;;;;;;15.03;10.30;;;13.20;99.90;;;;;;5003768;28;20492;-63
2023/10/10 05:27:58;;;;;;;15.17;11.40;;;13.20;99.90;;;;;;4998758;28;20475;-63
2023/10/10 05:30:27;;;;;;;14.30;10.40;;;13.20;99.90;;;;;;4999726;28;20472;-63
2023/10/10 05:33:01;;;;;;;15.60;10.43;;;13.20;99.90;;;;;;5002924;28;21282;-62
2023/10/10 05:35:30;;;;;;;15.70;10.73;;;13.20;99.90;;;;;;5000533;28;20629;-63
2023/10/10 05:38:01;;;;;;;14.60;10.20;;;13.20;99.90;;;;;;5006369;28;20529;-63
2023/10/10 05:40:33;;;;;;;13.80;10.10;;;13.20;99.90;;;;;;5009982;28;20471;-63
2023/10/10 05:43:02;;;;;;;15.90;10.77;;;13.20;99.90;;;;;;5009453;28;20523;-63
2023/10/10 05:45:31;;;;;;;14.13;9.93;;;13.20;99.90;;;;;;5012875;28;20613;-63
2023/10/10 05:47:59;;;;;;;14.43;10.10;;;13.20;99.90;;;;;;5011054;28;20476;-63
2023/10/10 05:50:27;;;;;;;15.50;10.90;;;13.20;99.90;;;;;;5017719;28;20482;-63
2023/10/10 05:52:55;;;;;;;15.03;10.23;;;13.20;99.90;;;;;;5013746;28;20513;-63
2023/10/10 05:55:25;;;;;;;19.03;10.93;;;13.20;99.90;;;;;;5008927;28;20506;-63
2023/10/10 05:57:53;;;;;;;15.20;11.43;;;13.20;99.90;;;;;;5014788;28;24142;-63
2023/10/10 06:00:25;;;;;;;18.20;11.53;;;13.20;99.90;;;;;;5016298;28;20911;-63
2023/10/10 06:02:54;;;;;;;16.73;11.60;;;13.20;99.90;;;;;;5011838;28;20490;-63
2023/10/10 06:05:22;;;;;;;17.10;11.63;;;13.20;99.90;;;;;;5013273;28;20487;-63
2023/10/10 06:07:51;;;;;;;14.93;10.63;;;13.30;99.90;;;;;;5016818;28;20468;-63
2023/10/10 06:10:19;;;;;;;17.63;11.63;;;13.20;99.90;;;;;;5009917;28;20472;-64
2023/10/10 06:12:49;;;;;;;17.37;10.40;;;13.20;99.90;;;;;;4999471;28;20466;-63
2023/10/10 06:15:19;;;;;;;17.87;11.17;;;13.20;99.90;;;;;;5019427;28;20590;-63
2023/10/10 06:17:48;;;;;;;17.03;10.27;;;13.30;99.90;;;;;;5014421;28;21088;-63
2023/10/10 06:20:21;;;;;;;16.90;11.10;;;13.30;99.90;;;;;;5019038;28;20470;-63
2023/10/10 06:22:49;;;;;;;16.60;10.80;;;13.30;99.90;;;;;;5018712;28;20560;-62
2023/10/10 06:25:18;;;;;;;16.07;10.70;;;13.30;99.90;;;;;;5012944;28;20491;-63
2023/10/10 06:27:54;;;;;;;15.40;10.70;;;13.30;99.90;;;;;;5009670;28;20544;-63
2023/10/10 06:30:24;;;;;;;18.97;12.13;;;13.30;99.90;;;;;;5012813;28;20462;-63
2023/10/10 06:32:59;;;;;;;22.80;12.27;;;13.30;99.90;;;;;;5016894;28;20495;-64
2023/10/10 06:35:28;;;;;;;20.70;12.50;;;13.30;99.90;;;;;;5013997;28;20518;-62
2023/10/10 06:37:58;;;;;;;19.23;11.13;;;13.40;99.90;;;;;;5006132;28;20502;-64
2023/10/10 06:40:28;;;;;;;22.57;12.50;;;13.40;99.90;;;;;;5015174;28;20472;-63
2023/10/10 06:42:58;;;;;;;23.03;13.03;;;13.40;99.90;;;;;;4998490;28;20499;-63
2023/10/10 06:45:35;;;;;;;19.67;13.43;;;13.40;99.90;;;;;;5010165;28;20496;-64
2023/10/10 06:48:03;;;;;;;27.80;14.50;;;13.40;99.90;;;;;;5011255;28;20471;-62
2023/10/10 06:50:32;;;;;;;24.00;14.63;;;13.40;99.90;;;;;;5009604;28;20476;-62
2023/10/10 06:53:01;;;;;;;25.43;13.20;;;13.40;99.90;;;;;;5003079;28;20486;-63
2023/10/10 06:55:36;;;;;;;25.80;14.40;;;13.50;99.90;;;;;;5007233;28;20512;-64
2023/10/10 06:58:06;;;;;;;27.30;14.67;;;13.50;99.90;;;;;;5008434;28;20494;-63
2023/10/10 07:00:44;;;;;;;26.40;14.00;;;13.60;99.90;;;;;;5013837;28;20503;-63
2023/10/10 07:03:18;;;;;;;22.13;13.37;;;13.60;99.90;;;;;;5020031;28;20495;-63
2023/10/10 07:05:48;;;;;;;27.93;15.40;;;13.60;99.90;;;;;;5014461;28;20499;-63
2023/10/10 07:08:24;;;;;;;23.70;14.10;;;13.60;99.90;;;;;;5013822;28;20480;-63
2023/10/10 07:10:54;;;;;;;25.83;14.20;;;13.60;99.90;;;;;;5017690;28;20470;-63
2023/10/10 07:13:29;;;;;;;26.60;14.33;;;13.60;99.90;;;;;;5012264;28;20574;-63
2023/10/10 07:15:57;;;;;;;23.40;14.30;;;13.70;99.90;;;;;;5020983;28;20490;-63
2023/10/10 07:18:25;;;;;;;21.73;12.93;;;13.70;99.90;;;;;;5013681;28;20577;-63
2023/10/10 07:21:04;;;;;;;27.77;14.67;;;13.70;99.90;;;;;;5014645;28;21322;-63
2023/10/10 07:23:53;;;;;;;23.37;12.97;;;13.70;99.90;;;;;;5007441;28;20526;-63
2023/10/10 07:26:21;;;;;;;23.70;13.30;;;13.70;99.90;;;;;;5013415;28;20767;-63
2023/10/10 07:28:52;;;;;;;23.37;14.13;;;13.80;99.90;;;;;;5007735;28;20513;-63
2023/10/10 07:31:23;;;;;;;20.80;13.33;;;13.80;99.90;;;;;;5019261;28;21009;-63
2023/10/10 07:33:56;;;;;;;21.73;13.37;;;13.80;99.90;;;;;;5018247;28;20945;-63
2023/10/10 07:36:26;;;;;;;18.83;12.67;;;13.90;99.90;;;;;;5008260;28;20491;-64
2023/10/10 07:39:32;;;;;;;17.80;12.20;;;13.90;99.90;;;;;;5010653;28;20523;-62
2023/10/10 07:41:52;;;;;;;18.53;11.90;;;14.00;99.90;;;;;;5015200;28;20466;-62
2023/10/10 07:44:22;;;;;;;27.30;14.40;;;14.00;99.90;;;;;;5013487;28;20582;-63
2023/10/10 07:49:33;;;;;;;19.10;10.40;;;14.00;99.90;;;;;;5009647;28;20575;-62
2023/10/10 07:52:02;;;;;;;17.57;10.67;;;14.00;99.90;;;;;;5012142;28;20561;-62
2023/10/10 07:54:38;;;;;;;17.03;11.10;;;14.10;99.90;;;;;;5010580;28;20487;-63
2023/10/10 07:57:17;;;;;;;15.70;9.50;;;14.10;99.90;;;;;;5012418;28;20496;-63
2023/10/10 07:59:46;;;;;;;13.47;10.00;;;14.10;99.90;;;;;;5016408;28;20477;-63
2023/10/10 08:02:24;;;;;;;11.87;9.17;;;14.10;99.90;;;;;;5025590;28;20625;-63
2023/10/10 08:04:54;;;;;;;13.00;8.93;;;14.10;99.90;;;;;;5014200;28;20677;-63
2023/10/10 08:07:23;;;;;;;14.50;9.47;;;14.20;99.90;;;;;;5018997;28;20537;-62
2023/10/10 08:10:12;;;;;;;11.07;8.37;;;14.20;99.90;;;;;;5020529;28;20479;-63
2023/10/10 08:12:41;;;;;;;14.83;7.37;;;14.20;99.90;;;;;;5008360;28;20975;-63
2023/10/10 08:15:20;;;;;;;9.53;7.47;;;14.20;99.90;;;;;;5022468;28;21199;-64
2023/10/10 08:17:55;;;;;;;7.50;6.70;;;14.20;99.90;;;;;;5023241;28;20516;-63
2023/10/10 08:21:06;;;;;;;10.20;6.80;;;14.30;99.90;;;;;;5016696;28;20471;-63
2023/10/10 08:23:24;;;;;;;10.17;6.87;;;14.30;99.90;;;;;;5027726;28;20503;-63
2023/10/10 08:25:53;;;;;;;11.00;5.70;;;14.30;99.90;;;;;;5024203;28;20842;-64
2023/10/10 08:28:22;;;;;;;9.23;6.47;;;14.30;99.90;;;;;;5027766;28;20479;-63
2023/10/10 08:30:51;;;;;;;9.03;5.97;;;14.30;99.90;;;;;;5019266;28;20505;-62
2023/10/10 08:33:20;;;;;;;13.53;7.03;;;14.40;99.90;;;;;;5015390;28;20487;-63
2023/10/10 08:35:48;;;;;;;6.30;5.30;;;14.40;99.90;;;;;;5007002;28;20491;-63
2023/10/10 08:38:19;;;;;;;7.60;5.63;;;14.40;99.90;;;;;;5018841;28;20966;-63
2023/10/10 08:40:57;;;;;;;9.27;6.37;;;14.50;99.90;;;;;;5032251;28;20474;-63
2023/10/10 08:43:28;;;;;;;8.30;6.63;;;14.60;99.90;;;;;;5020611;28;20523;-62
2023/10/10 08:46:03;;;;;;;11.70;6.67;;;14.70;99.90;;;;;;5029602;28;20549;-62
2023/10/10 08:48:33;;;;;;;10.13;7.20;;;14.70;99.90;;;;;;5017760;28;20964;-63
2023/10/10 08:51:04;;;;;;;10.43;5.60;;;14.80;99.90;;;;;;5013087;28;20467;-63
2023/10/10 08:53:35;;;;;;;8.27;6.20;;;14.80;99.90;;;;;;5013161;28;20946;-63
2023/10/10 08:56:04;;;;;;;8.17;6.30;;;14.90;99.90;;;;;;5017719;28;20479;-63
2023/10/10 08:58:32;;;;;;;8.77;6.77;;;14.90;99.90;;;;;;5027399;28;20590;-63
2023/10/10 09:01:01;;;;;;;11.00;7.00;;;15.00;99.90;;;;;;5021515;28;20470;-63
2023/10/10 09:03:34;;;;;;;7.87;6.50;;;15.00;99.90;;;;;;5023756;28;20536;-63
2023/10/10 09:06:17;;;;;;;7.93;7.13;;;15.00;99.90;;;;;;5028005;28;20586;-63
2023/10/10 09:08:49;;;;;;;7.80;6.40;;;15.10;99.90;;;;;;5019365;28;20491;-63
2023/10/10 09:11:20;;;;;;;9.37;6.33;;;15.10;99.90;;;;;;5024706;28;20638;-64
2023/10/10 09:13:52;;;;;;;7.40;6.60;;;15.20;99.90;;;;;;5030656;28;20881;-62
2023/10/10 09:16:41;;;;;;;8.30;6.53;;;15.20;99.90;;;;;;5030709;28;20895;-64
2023/10/10 09:19:10;;;;;;;11.03;7.00;;;15.30;99.90;;;;;;5021342;28;20525;-63
2023/10/10 09:21:54;;;;;;;8.97;7.27;;;15.30;99.90;;;;;;5017747;28;20479;-63
2023/10/10 09:24:28;;;;;;;7.50;6.80;;;15.40;99.90;;;;;;5012384;28;21097;-62
2023/10/10 09:26:58;;;;;;;7.40;6.50;;;15.30;99.90;;;;;;5015679;28;20564;-63
2023/10/10 09:29:32;;;;;;;7.53;6.33;;;15.40;99.90;;;;;;5014386;28;20467;-64
2023/10/10 09:32:05;;;;;;;8.20;5.83;;;15.40;99.90;;;;;;5014434;28;20471;-63
2023/10/10 09:34:40;;;;;;;8.67;7.00;;;15.50;99.90;;;;;;5012460;28;21026;-63
2023/10/10 09:37:13;;;;;;;7.30;6.60;;;15.60;99.90;;;;;;5017079;28;21063;-62
2023/10/10 09:39:43;;;;;;;8.23;7.00;;;15.70;99.90;;;;;;5007476;28;20532;-63
2023/10/10 09:42:28;;;;;;;7.43;6.73;;;15.80;99.90;;;;;;5011862;28;21008;-63
2023/10/10 09:47:56;;;;;;;7.00;6.30;;;16.00;99.90;;;;;;5021973;28;20536;-63
2023/10/10 09:50:29;;;;;;;6.93;6.27;;;16.10;99.90;;;;;;5025257;28;20483;-63
2023/10/10 09:52:59;;;;;;;6.47;5.67;;;16.10;99.90;;;;;;5011265;28;21020;-65
2023/10/10 09:58:24;;;;;;;6.17;5.63;;;16.20;99.90;;;;;;5009399;28;20506;-63
2023/10/10 10:00:54;;;;;;;8.27;5.93;;;16.30;99.90;;;;;;5010357;28;20482;-63
2023/10/10 10:06:35;;;;;;;6.43;5.77;;;16.30;99.90;;;;;;5021605;28;20487;-62
2023/10/10 10:09:31;;;;;;;5.63;5.13;;;16.40;99.90;;;;;;5021496;28;20466;-63
2023/10/10 10:12:19;;;;;;;8.10;5.40;;;16.50;99.90;;;;;;5027311;28;20569;-62
2023/10/10 10:14:56;;;;;;;5.73;5.10;;;16.60;99.90;;;;;;5020197;28;20486;-65
2023/10/10 10:17:47;;;;;;;6.93;5.77;;;16.60;99.90;;;;;;5022505;28;20474;-65
2023/10/10 10:20:34;;;;;;;6.07;5.20;;;16.60;99.90;;;;;;5021960;28;20530;-62
2023/10/10 10:23:03;;;;;;;7.90;5.67;;;16.70;99.90;;;;;;5019183;28;20486;-62
2023/10/10 10:25:32;;;;;;;6.47;5.80;;;16.70;99.90;;;;;;5012276;28;20583;-62
2023/10/10 10:28:11;;;;;;;5.93;5.20;;;16.70;99.90;;;;;;5013739;28;20467;-63
2023/10/10 10:30:50;;;;;;;5.80;5.27;;;16.70;99.90;;;;;;5013370;28;20467;-63
2023/10/10 10:33:22;;;;;;;6.20;5.07;;;16.80;99.90;;;;;;5023377;28;20526;-63
2023/10/10 10:36:14;;;;;;;5.30;4.80;;;16.80;99.90;;;;;;5011635;28;20993;-63
2023/10/10 10:41:52;;;;;;;5.23;4.60;;;16.90;99.90;;;;;;4961903;28;21252;-63
2023/10/10 10:44:44;;;;;;;4.67;4.23;;;16.90;99.90;;;;;;4946036;28;20494;-65
2023/10/10 10:47:28;;;;;;;5.40;4.90;;;16.80;99.90;;;;;;4993957;28;20845;-65
2023/10/10 10:49:57;;;;;;;7.57;4.70;;;16.80;99.90;;;;;;5015282;28;20478;-64
2023/10/10 10:55:21;;;;;;;6.50;4.00;;;16.80;99.90;;;;;;5079405;27;21637;-63
2023/10/10 10:57:49;;;;;;;5.13;3.87;;;16.80;99.90;;;;;;5062089;28;21155;-62
2023/10/10 11:00:29;;;;;;;6.93;3.87;;;16.90;99.90;;;;;;5059882;28;20472;-63
2023/10/10 11:02:59;;;;;;;4.77;4.00;;;16.90;99.90;;;;;;5076843;28;20488;-64
2023/10/10 11:05:29;;;;;;;4.33;3.53;;;17.00;99.90;;;;;;5078653;27;20483;-63
2023/10/10 11:08:10;;;;;;;5.67;3.27;;;17.20;99.90;;;;;;5067096;28;20484;-64
2023/10/10 11:10:46;;;;;;;4.33;3.40;;;17.30;99.90;;;;;;5069375;28;20503;-63
2023/10/10 11:13:14;;;;;;;3.60;3.30;;;17.60;99.90;;;;;;5069452;28;21045;-63
2023/10/10 11:15:43;;;;;;;4.60;4.20;;;17.80;99.90;;;;;;5068944;28;20989;-63
2023/10/10 11:18:12;;;;;;;6.53;4.40;;;18.00;99.90;;;;;;5067833;28;20481;-64
2023/10/10 11:23:31;;;;;;;5.80;4.80;;;18.40;99.90;;;;;;5066457;28;20550;-63
2023/10/10 11:26:08;;;;;;;7.40;6.37;;;18.60;99.90;;;;;;5068443;27;21134;-62
2023/10/10 11:28:45;;;;;;;6.77;6.10;;;18.80;99.90;;;;;;5068796;28;20468;-64
2023/10/10 11:31:14;;;;;;;6.20;5.70;;;19.00;99.90;;;;;;5066235;28;20554;-64
2023/10/10 11:33:49;;;;;;;7.00;6.40;;;19.20;99.90;;;;;;5062810;28;20920;-63
2023/10/10 11:36:29;;;;;;;5.80;5.30;;;19.40;99.90;;;;;;5059527;27;20567;-63
2023/10/10 11:39:15;;;;;;;5.40;5.00;;;19.70;99.90;;;;;;5064162;28;20468;-63
2023/10/10 11:41:46;;;;;;;5.37;4.87;;;19.90;99.90;;;;;;5059773;28;21329;-64
2023/10/10 11:44:20;;;;;;;7.37;4.93;;;20.10;99.90;;;;;;5059267;27;20506;-64
2023/10/10 11:46:49;;;;;;;5.10;4.63;;;20.30;99.90;;;;;;5056109;28;20998;-64
2023/10/10 11:49:18;;;;;;;5.00;4.60;;;20.60;99.90;;;;;;5067174;28;20473;-64
2023/10/10 11:51:46;;;;;;;4.20;3.90;;;20.80;99.90;;;;;;5066603;28;20558;-63
2023/10/10 11:54:25;;;;;;;4.23;3.80;;;21.20;99.90;;;;;;5059832;28;20508;-63
2023/10/10 11:56:54;;;;;;;4.20;3.37;;;21.60;99.90;;;;;;5059593;28;20518;-63
2023/10/10 11:59:23;;;;;;;3.80;3.20;;;22.00;99.90;;;;;;5058294;28;20476;-64
2023/10/10 12:01:51;;;;;;;4.20;3.00;;;22.40;99.90;;;;;;5054261;28;20468;-63
2023/10/10 12:04:31;;;;;;;5.47;2.70;;;23.10;99.90;;;;;;5056801;28;20497;-64
2023/10/10 12:07:00;;;;;;;3.43;2.53;;;24.20;99.90;;;;;;5046241;28;20476;-63
2023/10/10 12:09:33;;;;;;;2.70;2.50;;;25.50;99.90;;;;;;5047503;28;20504;-64
2023/10/10 12:12:03;;;;;;;3.03;2.43;;;26.20;99.90;;;;;;5044672;28;20477;-64
2023/10/10 12:14:32;;;;;;;2.40;2.20;;;26.80;99.90;;;;;;5042648;28;20482;-64
2023/10/10 12:17:05;;;;;;;3.43;2.40;;;27.30;99.90;;;;;;5046779;28;20478;-64
2023/10/10 12:19:37;;;;;;;2.50;2.30;;;27.00;99.90;;;;;;5050376;28;20505;-64
2023/10/10 12:22:10;;;;;;;2.40;2.27;;;26.60;99.90;;;;;;5047524;28;20547;-64
2023/10/10 12:24:39;;;;;;;3.03;2.70;;;26.50;99.90;;;;;;5042438;28;20498;-63
2023/10/10 12:27:09;;;;;;;2.73;2.50;;;25.80;99.90;;;;;;5046935;28;20466;-64
2023/10/10 12:29:40;;;;;;;4.63;3.03;;;25.10;99.90;;;;;;5043548;28;20477;-65
2023/10/10 12:32:22;;;;;;;2.83;2.60;;;24.40;99.90;;;;;;5051507;28;20473;-65
2023/10/10 12:34:50;;;;;;;3.73;2.80;;;23.80;99.90;;;;;;5054814;28;20493;-65
2023/10/10 12:37:18;;;;;;;3.10;2.77;;;23.10;99.90;;;;;;5056246;28;20469;-65
2023/10/10 12:39:47;;;;;;;4.50;3.00;;;22.60;99.90;;;;;;5055427;28;20492;-64
2023/10/10 12:42:16;;;;;;;3.60;3.30;;;22.20;99.90;;;;;;5054830;28;21047;-64
2023/10/10 12:44:47;;;;;;;3.83;3.43;;;21.90;99.90;;;;;;5054227;28;20586;-64
2023/10/10 12:47:19;;;;;;;5.33;3.20;;;21.60;99.90;;;;;;5053295;28;20474;-65
2023/10/10 12:49:47;;;;;;;5.27;4.77;;;21.30;99.90;;;;;;5056202;28;20497;-65
2023/10/10 12:52:17;;;;;;;4.30;3.90;;;21.10;99.90;;;;;;5056506;28;21019;-65
2023/10/10 12:54:46;;;;;;;3.70;3.23;;;21.10;99.90;;;;;;5050230;28;21024;-65
2023/10/10 12:57:16;;;;;;;4.07;3.40;;;21.30;99.90;;;;;;5048193;28;20626;-62
2023/10/10 12:59:47;;;;;;;4.90;3.30;;;21.70;99.90;;;;;;5050833;28;21248;-63
2023/10/10 13:02:16;;;;;;;3.33;3.13;;;22.00;99.90;;;;;;5054354;28;20485;-63
2023/10/10 13:04:48;;;;;;;4.10;3.50;;;22.00;99.90;;;;;;5052166;28;21013;-63
2023/10/10 13:07:18;;;;;;;4.93;4.53;;;21.90;99.90;;;;;;5057703;28;20498;-63
2023/10/10 13:09:46;;;;;;;4.07;3.77;;;21.90;99.90;;;;;;5052835;28;20559;-66
2023/10/10 13:12:27;;;;;;;5.43;3.60;;;21.80;99.90;;;;;;5053463;28;20498;-67
2023/10/10 13:15:16;;;;;;;4.93;4.43;;;21.70;99.90;;;;;;5053192;28;20496;-66
2023/10/10 13:17:53;;;;;;;6.23;4.60;;;21.40;99.90;;;;;;5052360;28;20469;-67
2023/10/10 13:20:22;;;;;;;5.07;4.63;;;21.20;99.90;;;;;;5051532;28;20957;-67
2023/10/10 13:22:51;;;;;;;4.60;4.20;;;21.00;99.90;;;;;;5045290;28;20838;-66
2023/10/10 13:25:21;;;;;;;6.20;5.50;;;21.10;99.90;;;;;;5042931;28;20490;-64
2023/10/10 13:27:52;;;;;;;4.50;4.20;;;21.00;99.90;;;;;;5055238;28;20466;-64
2023/10/10 13:30:20;;;;;;;4.63;4.30;;;20.80;99.90;;;;;;5053140;28;20481;-63
2023/10/10 13:32:49;;;;;;;5.23;4.73;;;20.60;99.90;;;;;;5053593;28;20622;-62
2023/10/10 13:35:19;;;;;;;4.50;4.10;;;20.40;99.90;;;;;;5052351;28;20593;-63
2023/10/10 13:37:48;;;;;;;5.17;4.77;;;20.30;99.90;;;;;;5048571;28;20859;-63
2023/10/10 13:40:22;;;;;;;5.27;4.87;;;20.10;99.90;;;;;;5052550;28;20470;-65
2023/10/10 13:42:52;;;;;;;5.77;5.17;;;20.00;99.90;;;;;;5048451;28;20593;-64
2023/10/10 13:45:22;;;;;;;8.30;7.40;;;19.80;99.90;;;;;;5034330;28;20580;-64
2023/10/10 13:47:50;;;;;;;7.50;6.80;;;19.60;99.90;;;;;;5047951;28;20472;-63
2023/10/10 13:53:04;;;;;;;9.73;8.40;;;19.30;99.90;;;;;;5040048;28;20481;-63
2023/10/10 13:55:34;;;;;;;7.60;7.00;;;19.20;99.90;;;;;;5050116;28;23733;-63
2023/10/10 13:58:07;;;;;;;9.10;8.30;;;19.10;99.90;;;;;;5050780;28;20489;-63
2023/10/10 14:00:39;;;;;;;8.43;7.73;;;19.10;99.90;;;;;;5052255;28;20478;-63
2023/10/10 14:03:07;;;;;;;7.87;7.17;;;19.00;99.90;;;;;;5050820;28;20869;-62
2023/10/10 14:05:37;;;;;;;8.63;7.93;;;18.90;99.90;;;;;;5050396;28;20489;-62
2023/10/10 14:08:07;;;;;;;7.40;6.80;;;18.90;99.90;;;;;;5054507;28;20740;-63
2023/10/10 14:10:36;;;;;;;9.50;7.17;;;18.80;99.90;;;;;;5048595;28;20819;-63
2023/10/10 14:13:19;;;;;;;11.80;7.70;;;18.80;99.90;;;;;;5043993;28;20930;-65
2023/10/10 14:15:56;;;;;;;7.27;6.57;;;18.70;99.90;;;;;;5040841;28;21078;-65
2023/10/10 14:18:29;;;;;;;9.03;7.10;;;18.70;99.90;;;;;;5046340;28;20546;-64
2023/10/10 14:21:01;;;;;;;8.40;7.60;;;18.70;99.90;;;;;;5044758;28;20593;-65
2023/10/10 14:23:35;;;;;;;10.10;9.30;;;18.70;99.90;;;;;;5047778;28;20495;-64
2023/10/10 14:26:13;;;;;;;10.03;9.03;;;18.70;99.90;;;;;;5045452;28;20479;-67
2023/10/10 14:28:50;;;;;;;8.57;7.73;;;18.70;99.90;;;;;;5049231;28;20901;-67
2023/10/10 14:31:19;;;;;;;10.47;9.47;;;18.70;99.90;;;;;;5044330;28;20461;-68
2023/10/10 14:33:47;;;;;;;11.63;10.53;;;18.70;99.90;;;;;;5046549;28;20498;-68
2023/10/10 14:36:16;;;;;;;11.80;9.77;;;18.70;99.90;;;;;;5042171;28;20493;-68
2023/10/10 14:38:45;;;;;;;10.33;9.43;;;18.60;99.90;;;;;;5044216;28;20894;-67
2023/10/10 14:41:16;;;;;;;9.47;8.63;;;18.60;99.90;;;;;;5045251;28;20852;-64
2023/10/10 14:43:47;;;;;;;9.60;8.70;;;18.60;99.90;;;;;;5050487;28;20494;-64
2023/10/10 14:46:21;;;;;;;10.40;9.37;;;18.60;99.90;;;;;;5047515;28;20489;-63
2023/10/10 14:48:50;;;;;;;11.27;9.77;;;18.60;99.90;;;;;;5043972;28;20469;-67
2023/10/10 14:51:18;;;;;;;10.73;9.73;;;18.60;99.90;;;;;;5043393;28;20480;-66
2023/10/10 14:53:51;;;;;;;11.30;10.30;;;18.60;99.90;;;;;;5043481;28;20501;-66
2023/10/10 14:56:24;;;;;;;11.97;10.83;;;18.60;99.90;;;;;;5066252;28;20507;-66
2023/10/10 14:58:54;;;;;;;16.73;12.30;;;18.60;99.90;;;;;;5066333;28;20460;-65
2023/10/10 15:01:21;;;;;;;11.47;10.40;;;18.60;99.90;;;;;;5058743;28;20484;-66
2023/10/10 15:03:50;;;;;;;14.23;12.83;;;18.50;99.90;;;;;;5064811;28;20839;-66
2023/10/10 15:06:22;;;;;;;13.60;12.33;;;18.50;99.90;;;;;;5069978;28;20492;-66
2023/10/10 15:08:50;;;;;;;15.67;14.17;;;18.50;99.90;;;;;;5070878;28;20555;-66
2023/10/10 15:11:18;;;;;;;16.90;15.10;;;18.50;99.90;;;;;;5070570;28;20477;-65
2023/10/10 15:13:46;;;;;;;15.90;14.40;;;18.40;99.90;;;;;;5073207;28;21055;-65
2023/10/10 15:16:15;;;;;;;15.23;13.53;;;18.40;99.90;;;;;;5069452;28;20488;-65
2023/10/10 15:18:43;;;;;;;16.97;15.17;;;18.30;99.90;;;;;;5063167;28;20480;-64